Time;durP1;ratioP1;P1;durP2;ratioP2;P2;SDS_P1;SDS_P2;PMS_P1;PMS_P2;Temp;Humidity;BMP_temperature;BMP_pressure;BME280_temperature;BME280_humidity;BME280_pressure;Samples;Min_cycle;Max_cycle;Signal;HPM_P1;HPM_P2
2023/02/21 02:15:48;;;;;;;1.10;1.00;;;;;;;;;;4956942;29;20031;-60
2023/02/21 02:18:28;;;;;;;1.20;1.10;;;;;;;;;;4956670;29;20042;-60
2023/02/21 02:21:14;;;;;;;0.90;0.70;;;;;;;;;;4939472;29;20070;-61
2023/02/21 02:23:59;;;;;;;1.05;0.90;;;;;;;;;;4956962;29;20038;-60
2023/02/21 02:26:43;;;;;;;1.52;1.23;;;;;;;;;;4955419;29;20041;-61
2023/02/21 02:29:37;;;;;;;1.02;1.02;;;;;;;;;;4955583;29;20110;-61
2023/02/21 02:32:17;;;;;;;1.85;1.20;;;;;;;;;;4956648;29;20109;-66
2023/02/21 02:34:46;;;;;;;1.17;1.08;;;;;;;;;;5012768;23;20099;-63
2023/02/21 02:37:15;;;;;;;0.82;0.82;;;;;;;;;;5038908;23;20062;-61
2023/02/21 02:40:23;;;;;;;1.58;1.10;;;;;;;;;;4995590;28;20509;-62
2023/02/21 02:43:02;;;;;;;1.17;1.08;;;;;;;;;;4916086;29;20031;-62
2023/02/21 02:45:56;;;;;;;1.00;0.82;;;;;;;;;;4990240;28;20037;-63
2023/02/21 02:48:42;;;;;;;0.85;0.85;;;;;;;;;;5005022;28;20042;-63
2023/02/21 02:51:09;;;;;;;0.80;0.80;;;;;;;;;;4997526;28;20034;-62
2023/02/21 02:53:35;;;;;;;0.60;0.60;;;;;;;;;;4997536;28;20037;-62
2023/02/21 02:56:02;;;;;;;1.30;0.82;;;;;;;;;;4997462;28;20025;-61
2023/02/21 02:58:37;;;;;;;1.50;0.93;;;;;;;;;;4996932;28;20041;-63
2023/02/21 03:01:02;;;;;;;0.70;0.70;;;;;;;;;;4996954;28;20026;-62
2023/02/21 03:03:31;;;;;;;0.82;0.82;;;;;;;;;;5014763;28;20468;-61
2023/02/21 03:06:10;;;;;;;0.70;0.70;;;;;;;;;;4997043;28;20026;-61
2023/02/21 03:08:46;;;;;;;0.80;0.80;;;;;;;;;;4980978;28;20042;-63
2023/02/21 03:11:16;;;;;;;0.70;0.68;;;;;;;;;;4980592;28;20466;-61
2023/02/21 03:13:42;;;;;;;;;;;;;;;;;;4997219;28;20433;-61
2023/02/21 03:16:18;;;;;;;0.90;0.90;;;;;;;;;;5014387;28;19909;-62
2023/02/21 03:18:51;;;;;;;1.00;0.90;;;;;;;;;;4996834;28;20295;-62
2023/02/21 03:21:19;;;;;;;0.82;0.82;;;;;;;;;;4996668;28;20025;-62
2023/02/21 03:23:47;;;;;;;0.70;0.70;;;;;;;;;;5013807;28;20026;-60
2023/02/21 03:26:13;;;;;;;0.60;0.60;;;;;;;;;;5013923;28;20022;-60
2023/02/21 03:28:42;;;;;;;0.65;0.65;;;;;;;;;;4996353;28;20523;-59
2023/02/21 03:31:08;;;;;;;0.70;0.70;;;;;;;;;;4996610;28;20041;-61
2023/02/21 03:33:34;;;;;;;1.02;0.88;;;;;;;;;;4996433;28;20022;-61
2023/02/21 03:36:03;;;;;;;0.60;0.60;;;;;;;;;;5013914;28;20496;-63
2023/02/21 03:38:29;;;;;;;0.57;0.57;;;;;;;;;;4996436;28;20469;-62
2023/02/21 03:40:56;;;;;;;0.70;0.70;;;;;;;;;;4980631;28;20061;-62
2023/02/21 03:43:21;;;;;;;0.88;0.68;;;;;;;;;;4996366;28;20434;-62
2023/02/21 03:45:51;;;;;;;0.50;0.50;;;;;;;;;;5014512;23;20161;-66
2023/02/21 03:48:18;;;;;;;0.70;0.70;;;;;;;;;;5033476;28;20057;-65
2023/02/21 03:50:43;;;;;;;1.00;0.90;;;;;;;;;;5035017;28;20041;-65
2023/02/21 03:53:09;;;;;;;1.48;0.90;;;;;;;;;;5035869;28;20028;-65
2023/02/21 03:55:37;;;;;;;1.52;0.57;;;;;;;;;;5053359;28;20033;-65
2023/02/21 04:01:22;;;;;;;0.60;0.60;;;;;;;;;;5057327;23;20057;-64
2023/02/21 04:03:49;;;;;;;1.10;0.75;;;;;;;;;;5034931;28;20048;-63
2023/02/21 04:06:15;;;;;;;2.42;0.70;;;;;;;;;;5034779;28;20020;-64
2023/02/21 04:08:40;;;;;;;0.68;0.63;;;;;;;;;;5052667;28;20037;-64
2023/02/21 04:11:06;;;;;;;0.73;0.73;;;;;;;;;;5018414;28;20037;-63
2023/02/21 04:13:33;;;;;;;0.80;0.80;;;;;;;;;;5034922;28;20116;-63
2023/02/21 04:16:00;;;;;;;0.60;0.60;;;;;;;;;;5034439;28;20395;-64
2023/02/21 04:18:25;;;;;;;1.50;0.80;;;;;;;;;;5052674;28;20116;-64
2023/02/21 04:20:55;;;;;;;0.73;0.70;;;;;;;;;;5034669;28;20439;-64
2023/02/21 04:23:21;;;;;;;0.80;0.80;;;;;;;;;;5034917;28;20026;-62
2023/02/21 04:25:47;;;;;;;0.80;0.80;;;;;;;;;;5034628;28;20099;-63
2023/02/21 04:28:19;;;;;;;0.60;0.60;;;;;;;;;;5034534;28;20039;-64
2023/02/21 04:30:44;;;;;;;0.52;0.52;;;;;;;;;;5052362;28;20109;-63
2023/02/21 04:33:10;;;;;;;0.40;0.40;;;;;;;;;;5034781;28;20025;-65
2023/02/21 04:35:35;;;;;;;0.98;0.75;;;;;;;;;;5052403;28;20042;-63
2023/02/21 04:38:06;;;;;;;0.63;0.63;;;;;;;;;;5034681;28;20079;-64
2023/02/21 04:40:31;;;;;;;0.63;0.63;;;;;;;;;;5052414;28;20377;-63
2023/02/21 04:42:57;;;;;;;0.60;0.55;;;;;;;;;;5034637;28;20052;-63
2023/02/21 04:45:22;;;;;;;0.55;0.55;;;;;;;;;;5033750;28;20025;-63
2023/02/21 04:47:48;;;;;;;0.55;0.55;;;;;;;;;;5017660;28;20083;-64
2023/02/21 04:50:14;;;;;;;0.63;0.63;;;;;;;;;;5052631;28;20477;-61
2023/02/21 04:52:40;;;;;;;0.63;0.63;;;;;;;;;;5052344;28;20040;-64
2023/02/21 04:55:06;;;;;;;0.60;0.60;;;;;;;;;;5034252;28;20037;-63
2023/02/21 04:57:31;;;;;;;0.77;0.60;;;;;;;;;;5052198;28;20021;-62
2023/02/21 04:59:57;;;;;;;0.70;0.70;;;;;;;;;;4992705;28;1192717;-63
2023/02/21 05:02:23;;;;;;;0.60;0.60;;;;;;;;;;5052525;28;20055;-63
2023/02/21 05:04:48;;;;;;;1.70;0.90;;;;;;;;;;5055830;28;20033;-63
2023/02/21 05:07:13;;;;;;;1.02;0.80;;;;;;;;;;5056207;28;20031;-63
2023/02/21 05:09:39;;;;;;;1.63;0.85;;;;;;;;;;5056465;28;20499;-62
2023/02/21 05:12:10;;;;;;;0.70;0.70;;;;;;;;;;5038452;28;20476;-63
2023/02/21 05:14:36;;;;;;;0.63;0.60;;;;;;;;;;5038174;28;20029;-63
2023/02/21 05:17:04;;;;;;;0.70;0.70;;;;;;;;;;5037168;28;20017;-64
2023/02/21 05:19:29;;;;;;;0.75;0.75;;;;;;;;;;5054885;28;20037;-62
2023/02/21 05:21:55;;;;;;;0.30;0.30;;;;;;;;;;5038146;28;20025;-61
2023/02/21 05:24:21;;;;;;;0.60;0.60;;;;;;;;;;5055863;28;20388;-61
2023/02/21 05:26:47;;;;;;;0.77;0.73;;;;;;;;;;5055799;28;20021;-63
2023/02/21 05:29:12;;;;;;;1.95;1.00;;;;;;;;;;5055532;28;20025;-65
2023/02/21 05:31:39;;;;;;;0.85;0.70;;;;;;;;;;5037984;28;20559;-68
2023/02/21 05:34:04;;;;;;;0.80;0.80;;;;;;;;;;5038154;28;20376;-70
2023/02/21 05:36:30;;;;;;;1.00;1.00;;;;;;;;;;5055894;28;20040;-69
2023/02/21 05:38:55;;;;;;;0.80;0.80;;;;;;;;;;5056238;28;20029;-68
2023/02/21 05:41:21;;;;;;;0.88;0.70;;;;;;;;;;5054968;28;20052;-67
2023/02/21 05:43:47;;;;;;;1.20;0.93;;;;;;;;;;5055435;28;20040;-68
2023/02/21 05:46:29;;;;;;;0.57;0.55;;;;;;;;;;5055623;28;20400;-68
2023/02/21 05:48:56;;;;;;;1.00;0.80;;;;;;;;;;5055425;28;20025;-68
2023/02/21 05:51:24;;;;;;;0.95;0.93;;;;;;;;;;5037594;28;20380;-67
2023/02/21 05:53:50;;;;;;;0.75;0.75;;;;;;;;;;5037136;28;20357;-65
2023/02/21 05:56:15;;;;;;;0.75;0.75;;;;;;;;;;5054716;28;20029;-63
2023/02/21 05:58:41;;;;;;;0.88;0.88;;;;;;;;;;5053634;28;20034;-62
2023/02/21 06:01:06;;;;;;;0.95;0.95;;;;;;;;;;5037813;28;20089;-63
2023/02/21 06:03:32;;;;;;;0.80;0.80;;;;;;;;;;5034610;28;20124;-62
2023/02/21 06:05:57;;;;;;;0.93;0.93;;;;;;;;;;5032768;28;20052;-63
2023/02/21 06:08:23;;;;;;;0.65;0.65;;;;;;;;;;5013439;28;20037;-63
2023/02/21 06:10:48;;;;;;;1.02;1.00;;;;;;;;;;5034717;28;20043;-64
2023/02/21 06:13:13;;;;;;;0.93;0.90;;;;;;;;;;5001047;28;20370;-64
2023/02/21 06:15:40;;;;;;;1.08;0.88;;;;;;;;;;5034306;28;20128;-62
2023/02/21 06:18:05;;;;;;;0.85;0.85;;;;;;;;;;5034749;28;20442;-72
2023/02/21 06:20:30;;;;;;;1.00;1.00;;;;;;;;;;5017058;28;20063;-67
2023/02/21 06:22:56;;;;;;;0.85;0.85;;;;;;;;;;5033901;28;20028;-68
2023/02/21 06:25:23;;;;;;;1.10;1.00;;;;;;;;;;5032855;28;20017;-67
2023/02/21 06:27:48;;;;;;;1.08;0.88;;;;;;;;;;5034365;28;20396;-64
2023/02/21 06:30:14;;;;;;;1.38;0.98;;;;;;;;;;5039453;23;20057;-67
2023/02/21 06:32:40;;;;;;;1.45;1.30;;;;;;;;;;5017157;28;20025;-67
2023/02/21 06:35:08;;;;;;;2.22;2.05;;;;;;;;;;5034305;28;20013;-67
2023/02/21 06:37:34;;;;;;;1.52;1.42;;;;;;;;;;5034500;28;20042;-68
2023/02/21 06:39:59;;;;;;;1.13;1.05;;;;;;;;;;5034451;28;20029;-67
2023/02/21 06:42:24;;;;;;;1.88;0.85;;;;;;;;;;5035142;28;20467;-68
2023/02/21 06:44:50;;;;;;;1.58;1.30;;;;;;;;;;5033773;28;20030;-67
2023/02/21 06:47:15;;;;;;;0.80;0.80;;;;;;;;;;5014941;28;20049;-63
2023/02/21 06:49:41;;;;;;;1.10;1.10;;;;;;;;;;5032747;28;20025;-64
2023/02/21 06:52:06;;;;;;;1.30;1.20;;;;;;;;;;5032725;28;20049;-64
2023/02/21 06:54:31;;;;;;;1.10;0.90;;;;;;;;;;5032866;28;20060;-62
2023/02/21 06:56:58;;;;;;;1.15;1.05;;;;;;;;;;5032612;28;20026;-67
2023/02/21 06:59:23;;;;;;;1.45;1.33;;;;;;;;;;5015844;28;20504;-69
2023/02/21 07:01:49;;;;;;;1.00;0.88;;;;;;;;;;5034367;28;20061;-64
2023/02/21 07:04:14;;;;;;;1.38;1.27;;;;;;;;;;5016515;28;20029;-64
2023/02/21 07:06:40;;;;;;;1.33;1.23;;;;;;;;;;5034409;28;20034;-64
2023/02/21 07:09:06;;;;;;;0.77;0.60;;;;;;;;;;5034370;28;20466;-64
2023/02/21 07:11:32;;;;;;;1.48;1.17;;;;;;;;;;5034079;28;20022;-64
2023/02/21 07:13:58;;;;;;;1.25;1.10;;;;;;;;;;5034035;28;20149;-64
2023/02/21 07:16:24;;;;;;;1.63;1.48;;;;;;;;;;5016371;28;20029;-64
2023/02/21 07:18:49;;;;;;;2.35;1.15;;;;;;;;;;5034110;28;20029;-64
2023/02/21 07:21:15;;;;;;;1.40;1.30;;;;;;;;;;5033942;28;20018;-69
2023/02/21 07:23:42;;;;;;;0.98;0.98;;;;;;;;;;5034187;28;20056;-68
2023/02/21 07:26:07;;;;;;;1.50;1.40;;;;;;;;;;5033225;28;20026;-68
2023/02/21 07:28:32;;;;;;;1.40;1.30;;;;;;;;;;5033832;28;20029;-67
2023/02/21 07:30:58;;;;;;;1.23;1.13;;;;;;;;;;5048192;28;20040;-67
2023/02/21 07:33:23;;;;;;;1.00;1.00;;;;;;;;;;5054531;28;20039;-68
2023/02/21 07:35:48;;;;;;;1.73;1.13;;;;;;;;;;5053629;28;20033;-67
2023/02/21 07:38:20;;;;;;;1.85;1.67;;;;;;;;;;5053815;28;20091;-68
2023/02/21 07:40:46;;;;;;;1.70;1.48;;;;;;;;;;5035681;28;20025;-68
2023/02/21 07:43:11;;;;;;;1.60;1.50;;;;;;;;;;5053787;28;20031;-68
2023/02/21 07:45:36;;;;;;;1.85;1.75;;;;;;;;;;5053503;28;20464;-68
2023/02/21 07:48:02;;;;;;;1.90;1.60;;;;;;;;;;5035668;28;20037;-68
2023/02/21 07:50:27;;;;;;;1.70;1.60;;;;;;;;;;5054002;28;20021;-68
2023/02/21 07:52:52;;;;;;;1.27;1.17;;;;;;;;;;5035655;28;20392;-68
2023/02/21 07:55:17;;;;;;;1.52;1.42;;;;;;;;;;5053972;28;20021;-64
2023/02/21 07:57:44;;;;;;;1.88;1.63;;;;;;;;;;5053832;28;20493;-64
2023/02/21 08:00:09;;;;;;;1.80;1.70;;;;;;;;;;5053377;28;20021;-64
2023/02/21 08:02:47;;;;;;;1.05;0.98;;;;;;;;;;5036900;28;20460;-64
2023/02/21 08:05:13;;;;;;;2.50;1.35;;;;;;;;;;5053378;28;20417;-64
2023/02/21 08:07:39;;;;;;;1.88;1.65;;;;;;;;;;5035432;28;20024;-64
2023/02/21 08:10:04;;;;;;;1.30;1.20;;;;;;;;;;5053275;28;20389;-64
2023/02/21 08:12:29;;;;;;;1.67;1.13;;;;;;;;;;5035419;28;20106;-64
2023/02/21 08:14:55;;;;;;;1.48;1.38;;;;;;;;;;5053226;28;20383;-65
2023/02/21 08:17:20;;;;;;;1.70;1.30;;;;;;;;;;5053437;28;20033;-64
2023/02/21 08:19:46;;;;;;;1.00;1.00;;;;;;;;;;5035325;28;20060;-64
2023/02/21 08:22:11;;;;;;;1.67;1.58;;;;;;;;;;5035331;28;20441;-64
2023/02/21 08:24:37;;;;;;;1.48;1.38;;;;;;;;;;5053067;28;20021;-63
2023/02/21 08:27:02;;;;;;;1.30;1.20;;;;;;;;;;5053144;28;20032;-64
2023/02/21 08:29:27;;;;;;;1.30;1.20;;;;;;;;;;5052909;28;20037;-64
2023/02/21 08:31:53;;;;;;;1.38;1.25;;;;;;;;;;5053322;28;20044;-64
2023/02/21 08:34:18;;;;;;;1.30;1.20;;;;;;;;;;5035312;28;20044;-63
2023/02/21 08:36:43;;;;;;;1.80;1.30;;;;;;;;;;5053418;28;20052;-64
2023/02/21 08:39:09;;;;;;;1.40;1.30;;;;;;;;;;5056782;28;20036;-64
2023/02/21 08:41:35;;;;;;;1.30;1.13;;;;;;;;;;5039577;28;20044;-64
2023/02/21 08:44:01;;;;;;;1.02;1.00;;;;;;;;;;5057014;28;20065;-63
2023/02/21 08:46:26;;;;;;;1.23;1.17;;;;;;;;;;5057250;28;20106;-64
2023/02/21 08:49:12;;;;;;;0.90;0.82;;;;;;;;;;5061231;23;20057;-64
2023/02/21 08:51:38;;;;;;;1.08;0.95;;;;;;;;;;5002990;23;20057;-64
2023/02/21 08:54:04;;;;;;;1.10;1.00;;;;;;;;;;5028567;28;20029;-63
2023/02/21 08:56:29;;;;;;;1.33;1.25;;;;;;;;;;5036866;28;20484;-63
2023/02/21 08:58:55;;;;;;;1.30;1.20;;;;;;;;;;5036505;28;20036;-62
2023/02/21 09:01:51;;;;;;;1.20;1.10;;;;;;;;;;5025473;23;20145;-69
2023/02/21 09:04:17;;;;;;;1.40;1.00;;;;;;;;;;4992597;23;20073;-68
2023/02/21 09:06:42;;;;;;;1.38;1.05;;;;;;;;;;4997072;28;20026;-68
2023/02/21 09:09:07;;;;;;;1.10;1.05;;;;;;;;;;4997045;28;20045;-67
2023/02/21 09:11:33;;;;;;;1.42;1.33;;;;;;;;;;4996956;28;20060;-68
2023/02/21 09:13:58;;;;;;;1.35;1.25;;;;;;;;;;4996943;28;20034;-68
2023/02/21 09:16:23;;;;;;;1.33;1.23;;;;;;;;;;4996901;28;20085;-68
2023/02/21 09:18:53;;;;;;;1.10;1.00;;;;;;;;;;4979321;28;20105;-68
2023/02/21 09:21:19;;;;;;;1.05;0.95;;;;;;;;;;4996968;28;20355;-68
2023/02/21 09:23:44;;;;;;;1.33;1.23;;;;;;;;;;4996993;28;20069;-69
2023/02/21 09:26:10;;;;;;;1.75;1.20;;;;;;;;;;4979091;28;20044;-68
2023/02/21 09:28:42;;;;;;;1.40;1.30;;;;;;;;;;4979510;28;20034;-68
2023/02/21 09:31:07;;;;;;;1.10;1.05;;;;;;;;;;4979225;28;20080;-68
2023/02/21 09:33:33;;;;;;;1.40;1.30;;;;;;;;;;4979193;28;20070;-67
2023/02/21 09:35:58;;;;;;;1.08;1.08;;;;;;;;;;4996766;28;20077;-68
2023/02/21 09:38:23;;;;;;;1.02;1.02;;;;;;;;;;4996710;28;20026;-69
2023/02/21 09:40:55;;;;;;;1.23;1.13;;;;;;;;;;4996406;28;20034;-68
2023/02/21 09:43:44;;;;;;;1.08;0.98;;;;;;;;;;4996669;28;20481;-69
2023/02/21 09:46:12;;;;;;;1.23;1.13;;;;;;;;;;4979248;28;20473;-68
2023/02/21 09:48:39;;;;;;;1.33;1.13;;;;;;;;;;4978156;28;20041;-68
2023/02/21 09:51:05;;;;;;;1.23;1.13;;;;;;;;;;4978768;28;20485;-68
2023/02/21 09:53:33;;;;;;;1.20;1.00;;;;;;;;;;4996506;28;20154;-68
2023/02/21 09:56:07;;;;;;;1.33;1.23;;;;;;;;;;4996126;28;20038;-68
2023/02/21 09:58:34;;;;;;;1.23;1.13;;;;;;;;;;4979106;28;20038;-67
2023/02/21 10:01:02;;;;;;;1.13;1.13;;;;;;;;;;4996016;28;20037;-68
2023/02/21 10:03:37;;;;;;;1.92;1.67;;;;;;;;;;4978362;28;20478;-68
2023/02/21 10:06:10;;;;;;;1.75;1.40;;;;;;;;;;4996233;28;20449;-68
2023/02/21 10:08:43;;;;;;;1.30;1.23;;;;;;;;;;4978804;28;20034;-68
2023/02/21 10:11:29;;;;;;;1.15;1.05;;;;;;;;;;4996075;28;20387;-68
2023/02/21 10:14:00;;;;;;;1.00;1.00;;;;;;;;;;4994620;28;20477;-68
2023/02/21 10:16:25;;;;;;;0.90;0.90;;;;;;;;;;4996067;28;20128;-68
2023/02/21 10:18:57;;;;;;;1.00;1.00;;;;;;;;;;4995919;28;20475;-68
2023/02/21 10:21:31;;;;;;;1.10;0.95;;;;;;;;;;4995928;28;20118;-68
2023/02/21 10:24:03;;;;;;;0.82;0.82;;;;;;;;;;4995876;28;20117;-67
2023/02/21 10:26:29;;;;;;;1.40;1.30;;;;;;;;;;4995832;28;20026;-67
2023/02/21 10:28:56;;;;;;;5.18;2.63;;;;;;;;;;4978635;28;20145;-68
2023/02/21 10:31:27;;;;;;;1.75;1.42;;;;;;;;;;4995727;28;20390;-68
2023/02/21 10:33:52;;;;;;;2.38;1.60;;;;;;;;;;4977976;28;20470;-68
2023/02/21 10:36:20;;;;;;;1.50;1.40;;;;;;;;;;4995473;28;20022;-67
2023/02/21 10:38:53;;;;;;;1.50;1.40;;;;;;;;;;4995512;28;20128;-68
2023/02/21 10:41:18;;;;;;;1.17;1.10;;;;;;;;;;4995540;28;20035;-63
2023/02/21 10:43:47;;;;;;;1.23;1.13;;;;;;;;;;4995275;28;20030;-62
2023/02/21 10:46:21;;;;;;;1.25;1.15;;;;;;;;;;4995446;28;20023;-63
2023/02/21 10:48:49;;;;;;;1.25;1.15;;;;;;;;;;4995652;28;20038;-62
2023/02/21 10:51:16;;;;;;;1.10;1.00;;;;;;;;;;4995283;28;20030;-62
2023/02/21 10:53:43;;;;;;;1.63;1.30;;;;;;;;;;4995317;28;20072;-62
2023/02/21 10:56:19;;;;;;;0.90;0.90;;;;;;;;;;4995000;28;20030;-64
2023/02/21 10:59:05;;;;;;;1.95;1.35;;;;;;;;;;4995148;28;20117;-63
2023/02/21 11:01:32;;;;;;;5.10;3.95;;;;;;;;;;4994386;28;20038;-62
2023/02/21 11:04:03;;;;;;;1.30;1.20;;;;;;;;;;4994633;28;20038;-63
2023/02/21 11:06:34;;;;;;;1.30;1.02;;;;;;;;;;4995104;28;20471;-62
2023/02/21 11:09:00;;;;;;;0.88;0.88;;;;;;;;;;4995096;28;20042;-63
2023/02/21 11:11:33;;;;;;;2.47;1.63;;;;;;;;;;4977704;28;20057;-63
2023/02/21 11:14:17;;;;;;;1.50;1.40;;;;;;;;;;4994648;28;20474;-64
2023/02/21 11:16:42;;;;;;;1.50;1.40;;;;;;;;;;4994982;28;20081;-62
2023/02/21 11:19:11;;;;;;;1.40;1.30;;;;;;;;;;4994959;28;20030;-63
2023/02/21 11:21:59;;;;;;;2.53;2.03;;;;;;;;;;5001921;23;20066;-63
2023/02/21 11:24:25;;;;;;;1.17;1.10;;;;;;;;;;4972608;23;20094;-62
2023/02/21 11:26:52;;;;;;;1.00;0.90;;;;;;;;;;4974902;28;20027;-64
2023/02/21 11:29:22;;;;;;;1.02;0.90;;;;;;;;;;4975280;28;20035;-62
2023/02/21 11:32:09;;;;;;;0.95;0.88;;;;;;;;;;4996151;23;20058;-67
2023/02/21 11:34:34;;;;;;;0.82;0.82;;;;;;;;;;4986899;23;20050;-68
2023/02/21 11:37:03;;;;;;;1.02;0.95;;;;;;;;;;4975494;28;20033;-68
2023/02/21 11:39:32;;;;;;;0.80;0.80;;;;;;;;;;4973601;28;20523;-68
2023/02/21 11:42:02;;;;;;;1.83;1.05;;;;;;;;;;4975160;28;20118;-68
2023/02/21 11:44:38;;;;;;;0.75;0.75;;;;;;;;;;4974940;28;20101;-67
2023/02/21 11:47:24;;;;;;;1.02;0.88;;;;;;;;;;4975424;28;20077;-68
2023/02/21 11:49:49;;;;;;;1.25;1.15;;;;;;;;;;4975103;28;20031;-68
2023/02/21 12:12:27;;;;;;;0.80;0.80;;;;;;;;;;4976012;28;20029;-68
2023/02/21 12:15:01;;;;;;;1.05;0.98;;;;;;;;;;4978852;28;20398;-68
2023/02/21 12:17:45;;;;;;;0.80;0.80;;;;;;;;;;4978406;28;20066;-68
2023/02/21 12:20:21;;;;;;;0.95;0.95;;;;;;;;;;4977561;28;20027;-67
2023/02/21 12:22:53;;;;;;;0.70;0.70;;;;;;;;;;4977172;28;20089;-67
2023/02/21 12:25:30;;;;;;;0.70;0.70;;;;;;;;;;4945553;28;20054;-68
2023/02/21 12:28:01;;;;;;;0.70;0.70;;;;;;;;;;4961335;28;20479;-68
2023/02/21 12:30:36;;;;;;;0.85;0.85;;;;;;;;;;4978570;28;20392;-69
2023/02/21 12:33:20;;;;;;;0.90;0.70;;;;;;;;;;4978244;28;20031;-68
2023/02/21 12:35:47;;;;;;;1.30;1.20;;;;;;;;;;4978082;28;20454;-68
2023/02/21 12:38:36;;;;;;;1.38;1.08;;;;;;;;;;4978607;28;20034;-68
2023/02/21 12:41:04;;;;;;;1.10;1.00;;;;;;;;;;4972484;28;20045;-67
2023/02/21 12:43:50;;;;;;;1.75;1.55;;;;;;;;;;4978304;28;20023;-68
2023/02/21 12:46:24;;;;;;;1.33;1.23;;;;;;;;;;4976772;28;20035;-68
2023/02/21 12:49:03;;;;;;;0.77;0.77;;;;;;;;;;4978196;28;20037;-68
2023/02/21 12:51:32;;;;;;;0.77;0.77;;;;;;;;;;4976676;28;20037;-67
2023/02/21 12:54:01;;;;;;;0.75;0.75;;;;;;;;;;4977868;28;20049;-69
2023/02/21 12:56:33;;;;;;;0.80;0.80;;;;;;;;;;4977837;28;20026;-68
2023/02/21 12:59:02;;;;;;;1.25;0.60;;;;;;;;;;4977628;28;20507;-68
2023/02/21 13:01:32;;;;;;;1.73;0.88;;;;;;;;;;4977709;28;20038;-67
2023/02/21 13:03:57;;;;;;;;;;;;;;;;;;4973797;28;20035;-68
2023/02/21 13:06:29;;;;;;;0.70;0.70;;;;;;;;;;4977964;28;19906;-68
2023/02/21 13:09:13;;;;;;;0.93;0.93;;;;;;;;;;4977550;28;20038;-68
2023/02/21 13:11:41;;;;;;;0.80;0.80;;;;;;;;;;4977822;28;20117;-68
2023/02/21 13:14:11;;;;;;;1.20;0.57;;;;;;;;;;4978037;28;20446;-68
2023/02/21 13:16:37;;;;;;;1.02;0.93;;;;;;;;;;4977460;28;20031;-67
2023/02/21 13:19:05;;;;;;;1.30;1.10;;;;;;;;;;4977326;28;20431;-68
2023/02/21 13:21:44;;;;;;;1.02;1.00;;;;;;;;;;4977654;28;20022;-68
2023/02/21 13:24:35;;;;;;;1.38;1.17;;;;;;;;;;4976206;28;20023;-68
2023/02/21 13:27:19;;;;;;;1.20;0.93;;;;;;;;;;4960568;28;20035;-68
2023/02/21 13:29:45;;;;;;;1.40;1.30;;;;;;;;;;4976338;28;20041;-68
2023/02/21 13:32:12;;;;;;;1.08;0.95;;;;;;;;;;4977739;28;20434;-68
2023/02/21 13:34:41;;;;;;;0.98;0.80;;;;;;;;;;4977180;28;20074;-68
2023/02/21 13:37:12;;;;;;;0.90;0.77;;;;;;;;;;4977352;28;20093;-68
2023/02/21 13:39:43;;;;;;;1.02;0.80;;;;;;;;;;4977230;28;20761;-67
2023/02/21 13:42:28;;;;;;;0.73;0.60;;;;;;;;;;4977275;28;20046;-67
2023/02/21 13:45:06;;;;;;;0.80;0.80;;;;;;;;;;4959593;28;20038;-67
2023/02/21 13:48:04;;;;;;;0.80;0.80;;;;;;;;;;4959644;28;20030;-68
2023/02/21 13:51:01;;;;;;;0.73;0.73;;;;;;;;;;4981044;23;20050;-68
2023/02/21 13:53:32;;;;;;;2.17;1.13;;;;;;;;;;5014514;28;20106;-63
2023/02/21 13:56:06;;;;;;;1.65;1.30;;;;;;;;;;5016291;28;20462;-63
2023/02/21 13:58:35;;;;;;;1.50;1.30;;;;;;;;;;5015622;28;20378;-62
2023/02/21 14:04:58;;;;;;;1.00;1.00;;;;;;;;;;4956673;29;20406;-62
2023/02/21 14:07:42;;;;;;;1.17;1.08;;;;;;;;;;4957216;29;20031;-62
2023/02/21 14:10:26;;;;;;;1.25;1.15;;;;;;;;;;4957732;29;20032;-62
2023/02/21 14:13:00;;;;;;;1.10;1.00;;;;;;;;;;4957118;29;20023;-62
2023/02/21 14:15:40;;;;;;;1.52;1.42;;;;;;;;;;4955825;29;20395;-62
2023/02/21 14:18:12;;;;;;;1.30;1.17;;;;;;;;;;4957258;29;20058;-62
2023/02/21 14:20:37;;;;;;;1.38;1.27;;;;;;;;;;4939744;29;20502;-62
2023/02/21 14:23:03;;;;;;;1.38;1.27;;;;;;;;;;4939778;29;20035;-62
2023/02/21 14:25:32;;;;;;;1.40;1.27;;;;;;;;;;4957163;29;20066;-62
2023/02/21 14:31:50;;;;;;;1.55;1.45;;;;;;;;;;4956556;29;20050;-62
2023/02/21 14:34:27;;;;;;;0.80;0.77;;;;;;;;;;4956993;29;20042;-62
2023/02/21 14:36:55;;;;;;;1.20;1.10;;;;;;;;;;4956745;28;20555;-62
2023/02/21 14:39:21;;;;;;;1.17;0.90;;;;;;;;;;4956556;29;20039;-62
2023/02/21 14:41:58;;;;;;;1.25;1.15;;;;;;;;;;4956388;29;20023;-66
2023/02/21 14:44:27;;;;;;;1.77;1.30;;;;;;;;;;4968422;28;20550;-67
2023/02/21 14:46:52;;;;;;;0.88;0.88;;;;;;;;;;4957035;28;20030;-68
2023/02/21 14:49:23;;;;;;;1.23;1.13;;;;;;;;;;4974490;28;20026;-71
2023/02/21 14:51:53;;;;;;;1.15;1.05;;;;;;;;;;4974950;28;20065;-59
2023/02/21 14:54:37;;;;;;;1.85;1.40;;;;;;;;;;4974395;28;20150;-59
2023/02/21 14:57:24;;;;;;;1.02;1.02;;;;;;;;;;4974048;28;20031;-58
2023/02/21 15:00:05;;;;;;;1.05;0.98;;;;;;;;;;4956402;28;20039;-58
2023/02/21 15:02:40;;;;;;;1.17;1.10;;;;;;;;;;4978238;28;20047;-58
2023/02/21 15:05:16;;;;;;;1.35;1.25;;;;;;;;;;4993550;28;20054;-58
2023/02/21 15:07:51;;;;;;;1.88;1.20;;;;;;;;;;4993734;28;20031;-58
2023/02/21 15:10:36;;;;;;;1.10;1.10;;;;;;;;;;4993095;28;20041;-58
2023/02/21 15:13:03;;;;;;;0.73;0.73;;;;;;;;;;4992690;28;20618;-58
2023/02/21 15:15:30;;;;;;;1.35;1.20;;;;;;;;;;4993224;28;20497;-58
2023/02/21 15:18:10;;;;;;;1.67;1.52;;;;;;;;;;4978536;28;20474;-58
2023/02/21 15:20:38;;;;;;;1.52;1.42;;;;;;;;;;4985072;28;20073;-59
2023/02/21 15:23:19;;;;;;;2.42;1.50;;;;;;;;;;4974740;28;20053;-64
2023/02/21 15:25:52;;;;;;;1.50;1.40;;;;;;;;;;4973699;28;20061;-66
2023/02/21 15:28:19;;;;;;;1.27;1.17;;;;;;;;;;4975143;28;20038;-65
2023/02/21 15:31:01;;;;;;;1.42;1.33;;;;;;;;;;4992393;28;20198;-65
2023/02/21 15:33:27;;;;;;;3.33;1.50;;;;;;;;;;4992944;28;20042;-60
2023/02/21 15:35:57;;;;;;;1.92;1.60;;;;;;;;;;4993115;28;20022;-60
2023/02/21 15:38:31;;;;;;;0.90;0.88;;;;;;;;;;4993701;28;20038;-61
2023/02/21 15:41:09;;;;;;;1.00;1.00;;;;;;;;;;4976493;28;20459;-61
2023/02/21 15:43:45;;;;;;;1.27;1.17;;;;;;;;;;4993446;28;20049;-61
2023/02/21 15:46:14;;;;;;;1.23;1.13;;;;;;;;;;4992073;28;20035;-65
2023/02/21 15:48:40;;;;;;;1.13;1.08;;;;;;;;;;4991423;28;20035;-60
2023/02/21 15:51:10;;;;;;;1.10;1.00;;;;;;;;;;4992648;28;20041;-61
2023/02/21 15:53:35;;;;;;;;;;;;;;;;;;4994200;28;20030;-61
2023/02/21 15:56:16;;;;;;;1.58;1.40;;;;;;;;;;4976407;28;20016;-61
2023/02/21 15:59:01;;;;;;;1.50;1.30;;;;;;;;;;4994119;28;20034;-66
2023/02/21 16:01:26;;;;;;;1.40;1.30;;;;;;;;;;4994272;28;20035;-65
2023/02/21 16:04:12;;;;;;;1.42;1.33;;;;;;;;;;4993644;28;20038;-67
2023/02/21 16:06:43;;;;;;;2.65;1.40;;;;;;;;;;4993645;28;20096;-65
2023/02/21 16:09:15;;;;;;;1.30;1.20;;;;;;;;;;4993139;28;20049;-65
2023/02/21 16:11:44;;;;;;;1.30;1.20;;;;;;;;;;4993208;28;20418;-65
2023/02/21 16:14:35;;;;;;;2.33;1.92;;;;;;;;;;4993352;28;20027;-65
2023/02/21 16:17:27;;;;;;;3.38;2.53;;;;;;;;;;4988972;28;20054;-65
2023/02/21 16:19:55;;;;;;;4.00;3.22;;;;;;;;;;4987863;28;20055;-60
2023/02/21 16:22:31;;;;;;;4.15;2.90;;;;;;;;;;4976117;28;20030;-60
2023/02/21 16:25:24;;;;;;;4.65;2.10;;;;;;;;;;4993255;28;20038;-64
2023/02/21 16:27:51;;;;;;;3.67;2.13;;;;;;;;;;4988712;28;20039;-60
2023/02/21 16:30:24;;;;;;;5.82;2.40;;;;;;;;;;4975760;28;20398;-60
2023/02/21 16:32:51;;;;;;;3.80;2.35;;;;;;;;;;4992758;28;20031;-60
2023/02/21 16:35:19;;;;;;;3.83;2.17;;;;;;;;;;4976220;28;20035;-60
2023/02/21 16:37:45;;;;;;;3.92;2.20;;;;;;;;;;4975598;28;20037;-60
2023/02/21 16:40:24;;;;;;;4.97;2.80;;;;;;;;;;4993117;28;20033;-60
2023/02/21 16:42:50;;;;;;;3.97;2.38;;;;;;;;;;4993414;28;20030;-60
2023/02/21 16:45:16;;;;;;;6.03;2.88;;;;;;;;;;4993761;28;20110;-60
2023/02/21 16:47:48;;;;;;;4.05;2.72;;;;;;;;;;4993232;28;20105;-64
2023/02/21 16:50:15;;;;;;;5.68;2.75;;;;;;;;;;4974987;28;20397;-64
2023/02/21 16:52:40;;;;;;;5.30;2.70;;;;;;;;;;4993224;28;20076;-64
2023/02/21 16:55:06;;;;;;;3.88;2.60;;;;;;;;;;4975654;28;20413;-64
2023/02/21 16:57:31;;;;;;;4.55;2.60;;;;;;;;;;4993190;28;20034;-68
2023/02/21 16:59:59;;;;;;;4.05;2.72;;;;;;;;;;4979418;28;20097;-73
2023/02/21 17:02:25;;;;;;;5.57;2.67;;;;;;;;;;4996508;28;20046;-64
2023/02/21 17:04:50;;;;;;;5.28;3.10;;;;;;;;;;4963097;28;20026;-59
2023/02/21 17:07:15;;;;;;;4.88;2.92;;;;;;;;;;4995886;28;20058;-65
2023/02/21 17:09:42;;;;;;;4.90;2.80;;;;;;;;;;4978042;28;20041;-74
2023/02/21 17:12:07;;;;;;;6.13;3.17;;;;;;;;;;4995940;28;20109;-70
2023/02/21 17:14:33;;;;;;;5.75;3.00;;;;;;;;;;4978842;28;20439;-64
2023/02/21 17:16:58;;;;;;;9.02;3.60;;;;;;;;;;4995695;28;20494;-69
2023/02/21 17:19:24;;;;;;;6.60;3.45;;;;;;;;;;4995646;28;20505;-60
2023/02/21 17:21:49;;;;;;;6.63;3.42;;;;;;;;;;4995981;28;20053;-62
2023/02/21 17:24:15;;;;;;;10.27;3.78;;;;;;;;;;4996165;28;20356;-60
2023/02/21 17:26:42;;;;;;;7.40;3.78;;;;;;;;;;4996386;28;20030;-60
2023/02/21 17:29:08;;;;;;;5.13;3.58;;;;;;;;;;4978479;28;20131;-71
2023/02/21 17:31:33;;;;;;;6.70;3.70;;;;;;;;;;4978388;28;20062;-62
2023/02/21 17:33:59;;;;;;;5.75;3.33;;;;;;;;;;4978108;28;20108;-60
2023/02/21 17:36:26;;;;;;;6.47;3.75;;;;;;;;;;4995963;28;20030;-63
2023/02/21 17:38:51;;;;;;;7.80;3.95;;;;;;;;;;4995367;28;20084;-59
2023/02/21 17:41:18;;;;;;;9.60;3.58;;;;;;;;;;4995706;28;20026;-64
2023/02/21 17:43:43;;;;;;;6.13;3.83;;;;;;;;;;4995721;28;20026;-64
2023/02/21 17:46:10;;;;;;;9.43;4.38;;;;;;;;;;4995599;28;20093;-64